sensor_id;sensor_type;location;lat;lon;timestamp;temperature;humidity
8676;DHT22;4375;52.486;13.424;2024-02-21T00:00:55;8.60;99.90
8676;DHT22;4375;52.486;13.424;2024-02-21T00:03:21;8.70;99.90
8676;DHT22;4375;52.486;13.424;2024-02-21T00:05:47;8.70;99.90
8676;DHT22;4375;52.486;13.424;2024-02-21T00:08:12;8.70;99.90
8676;DHT22;4375;52.486;13.424;2024-02-21T00:10:38;8.70;99.90
8676;DHT22;4375;52.486;13.424;2024-02-21T00:13:04;8.70;99.90
8676;DHT22;4375;52.486;13.424;2024-02-21T00:15:29;8.70;99.90
8676;DHT22;4375;52.486;13.424;2024-02-21T00:17:55;8.70;99.90
8676;DHT22;4375;52.486;13.424;2024-02-21T00:20:20;8.60;99.90
8676;DHT22;4375;52.486;13.424;2024-02-21T00:22:46;8.70;99.90
8676;DHT22;4375;52.486;13.424;2024-02-21T00:25:12;8.60;99.90
8676;DHT22;4375;52.486;13.424;2024-02-21T00:27:38;8.60;99.90
8676;DHT22;4375;52.486;13.424;2024-02-21T00:30:05;8.60;99.90
8676;DHT22;4375;52.486;13.424;2024-02-21T00:32:31;8.70;99.90
8676;DHT22;4375;52.486;13.424;2024-02-21T00:34:59;8.70;99.90
8676;DHT22;4375;52.486;13.424;2024-02-21T00:37:25;8.70;99.90
8676;DHT22;4375;52.486;13.424;2024-02-21T00:39:50;8.70;99.90
8676;DHT22;4375;52.486;13.424;2024-02-21T00:42:16;8.70;99.90
8676;DHT22;4375;52.486;13.424;2024-02-21T00:44:41;8.70;99.90
8676;DHT22;4375;52.486;13.424;2024-02-21T00:47:07;8.60;99.90
8676;DHT22;4375;52.486;13.424;2024-02-21T00:49:32;8.60;99.90
8676;DHT22;4375;52.486;13.424;2024-02-21T00:51:58;8.70;99.90
8676;DHT22;4375;52.486;13.424;2024-02-21T00:54:24;8.70;99.90
8676;DHT22;4375;52.486;13.424;2024-02-21T00:56:49;8.70;99.90
8676;DHT22;4375;52.486;13.424;2024-02-21T00:59:15;8.70;99.90
8676;DHT22;4375;52.486;13.424;2024-02-21T01:01:40;8.70;99.90
8676;DHT22;4375;52.486;13.424;2024-02-21T01:04:11;8.70;99.90
8676;DHT22;4375;52.486;13.424;2024-02-21T01:06:37;8.70;99.90
8676;DHT22;4375;52.486;13.424;2024-02-21T01:09:03;8.70;99.90
8676;DHT22;4375;52.486;13.424;2024-02-21T01:11:29;8.70;99.90
8676;DHT22;4375;52.486;13.424;2024-02-21T01:13:55;8.70;99.90
8676;DHT22;4375;52.486;13.424;2024-02-21T01:16:21;8.70;99.90
8676;DHT22;4375;52.486;13.424;2024-02-21T01:18:46;8.60;99.90
8676;DHT22;4375;52.486;13.424;2024-02-21T01:21:12;8.70;99.90
8676;DHT22;4375;52.486;13.424;2024-02-21T01:23:37;8.70;99.90
8676;DHT22;4375;52.486;13.424;2024-02-21T01:26:04;8.60;99.90
8676;DHT22;4375;52.486;13.424;2024-02-21T01:28:30;8.70;99.90
8676;DHT22;4375;52.486;13.424;2024-02-21T01:30:56;8.60;99.90
8676;DHT22;4375;52.486;13.424;2024-02-21T01:33:22;8.60;99.90
8676;DHT22;4375;52.486;13.424;2024-02-21T01:35:48;8.60;99.90
8676;DHT22;4375;52.486;13.424;2024-02-21T01:38:15;8.60;99.90
8676;DHT22;4375;52.486;13.424;2024-02-21T01:40:41;8.60;99.90
8676;DHT22;4375;52.486;13.424;2024-02-21T01:43:19;8.60;99.90
8676;DHT22;4375;52.486;13.424;2024-02-21T01:45:53;8.70;99.90
8676;DHT22;4375;52.486;13.424;2024-02-21T01:48:24;8.70;99.90
8676;DHT22;4375;52.486;13.424;2024-02-21T01:50:51;8.70;99.90
8676;DHT22;4375;52.486;13.424;2024-02-21T01:53:21;8.70;99.90
8676;DHT22;4375;52.486;13.424;2024-02-21T01:55:47;8.70;99.90
8676;DHT22;4375;52.486;13.424;2024-02-21T01:58:16;8.70;99.90
8676;DHT22;4375;52.486;13.424;2024-02-21T02:00:43;8.80;99.90
8676;DHT22;4375;52.486;13.424;2024-02-21T02:03:11;8.80;99.90
8676;DHT22;4375;52.486;13.424;2024-02-21T02:05:49;8.80;99.90
8676;DHT22;4375;52.486;13.424;2024-02-21T02:08:17;8.80;99.90
8676;DHT22;4375;52.486;13.424;2024-02-21T02:10:43;8.80;99.90
8676;DHT22;4375;52.486;13.424;2024-02-21T02:13:09;8.80;99.90
8676;DHT22;4375;52.486;13.424;2024-02-21T02:15:42;8.80;99.90
8676;DHT22;4375;52.486;13.424;2024-02-21T02:18:08;8.70;99.90
8676;DHT22;4375;52.486;13.424;2024-02-21T02:20:34;8.70;99.90
8676;DHT22;4375;52.486;13.424;2024-02-21T02:23:09;8.70;99.90
8676;DHT22;4375;52.486;13.424;2024-02-21T02:25:39;8.80;99.90
8676;DHT22;4375;52.486;13.424;2024-02-21T02:28:08;8.80;99.90
8676;DHT22;4375;52.486;13.424;2024-02-21T02:30:37;8.70;99.90
8676;DHT22;4375;52.486;13.424;2024-02-21T02:33:05;8.70;99.90
8676;DHT22;4375;52.486;13.424;2024-02-21T02:35:32;8.70;99.90
8676;DHT22;4375;52.486;13.424;2024-02-21T02:37:57;8.70;99.90
8676;DHT22;4375;52.486;13.424;2024-02-21T02:40:23;8.50;99.90
8676;DHT22;4375;52.486;13.424;2024-02-21T02:42:50;8.60;99.90
8676;DHT22;4375;52.486;13.424;2024-02-21T02:45:17;8.60;99.90
8676;DHT22;4375;52.486;13.424;2024-02-21T02:47:44;8.50;99.90
8676;DHT22;4375;52.486;13.424;2024-02-21T02:50:11;8.50;99.90
8676;DHT22;4375;52.486;13.424;2024-02-21T02:52:37;8.50;99.90
8676;DHT22;4375;52.486;13.424;2024-02-21T02:55:03;8.50;99.90
8676;DHT22;4375;52.486;13.424;2024-02-21T02:57:32;8.50;99.90
8676;DHT22;4375;52.486;13.424;2024-02-21T02:59:58;8.40;99.90
8676;DHT22;4375;52.486;13.424;2024-02-21T03:02:24;8.30;99.90
8676;DHT22;4375;52.486;13.424;2024-02-21T03:04:49;8.40;99.90
8676;DHT22;4375;52.486;13.424;2024-02-21T03:07:15;8.40;99.90
8676;DHT22;4375;52.486;13.424;2024-02-21T03:09:41;8.40;99.90
8676;DHT22;4375;52.486;13.424;2024-02-21T03:12:09;8.50;99.90
8676;DHT22;4375;52.486;13.424;2024-02-21T03:14:35;8.40;99.90
8676;DHT22;4375;52.486;13.424;2024-02-21T03:17:02;8.50;99.90
8676;DHT22;4375;52.486;13.424;2024-02-21T03:19:28;8.40;99.90
8676;DHT22;4375;52.486;13.424;2024-02-21T03:21:54;8.40;99.90
8676;DHT22;4375;52.486;13.424;2024-02-21T03:24:20;8.30;99.90
8676;DHT22;4375;52.486;13.424;2024-02-21T03:26:46;8.30;99.90
8676;DHT22;4375;52.486;13.424;2024-02-21T03:29:14;8.40;99.90
8676;DHT22;4375;52.486;13.424;2024-02-21T03:31:41;8.40;99.90
8676;DHT22;4375;52.486;13.424;2024-02-21T03:34:06;8.30;99.90
8676;DHT22;4375;52.486;13.424;2024-02-21T03:36:32;8.20;99.90
8676;DHT22;4375;52.486;13.424;2024-02-21T03:38:57;8.30;99.90
8676;DHT22;4375;52.486;13.424;2024-02-21T03:41:23;8.30;99.90
8676;DHT22;4375;52.486;13.424;2024-02-21T03:43:49;8.30;99.90
8676;DHT22;4375;52.486;13.424;2024-02-21T03:46:14;8.30;99.90
8676;DHT22;4375;52.486;13.424;2024-02-21T03:48:40;8.30;99.90
8676;DHT22;4375;52.486;13.424;2024-02-21T03:51:06;8.30;99.90
8676;DHT22;4375;52.486;13.424;2024-02-21T03:53:32;8.30;99.90
8676;DHT22;4375;52.486;13.424;2024-02-21T03:56:00;8.30;99.90
8676;DHT22;4375;52.486;13.424;2024-02-21T03:58:28;8.10;99.90
8676;DHT22;4375;52.486;13.424;2024-02-21T04:00:54;8.20;99.90
8676;DHT22;4375;52.486;13.424;2024-02-21T04:03:19;8.20;99.90
8676;DHT22;4375;52.486;13.424;2024-02-21T04:05:45;8.10;99.90
8676;DHT22;4375;52.486;13.424;2024-02-21T04:08:12;8.10;99.90
8676;DHT22;4375;52.486;13.424;2024-02-21T04:10:37;8.20;99.90
8676;DHT22;4375;52.486;13.424;2024-02-21T04:13:04;8.20;99.90
8676;DHT22;4375;52.486;13.424;2024-02-21T04:15:30;8.20;99.90
8676;DHT22;4375;52.486;13.424;2024-02-21T04:17:56;8.20;99.90
8676;DHT22;4375;52.486;13.424;2024-02-21T04:20:21;8.10;99.90
8676;DHT22;4375;52.486;13.424;2024-02-21T04:22:47;8.00;99.90
8676;DHT22;4375;52.486;13.424;2024-02-21T04:25:13;8.20;99.90
8676;DHT22;4375;52.486;13.424;2024-02-21T04:27:39;8.20;99.90
8676;DHT22;4375;52.486;13.424;2024-02-21T04:30:05;8.20;99.90
8676;DHT22;4375;52.486;13.424;2024-02-21T04:32:31;8.20;99.90
8676;DHT22;4375;52.486;13.424;2024-02-21T04:34:57;8.20;99.90
8676;DHT22;4375;52.486;13.424;2024-02-21T04:37:23;8.20;99.90
8676;DHT22;4375;52.486;13.424;2024-02-21T04:39:49;8.30;99.90
8676;DHT22;4375;52.486;13.424;2024-02-21T04:42:15;8.30;99.90
8676;DHT22;4375;52.486;13.424;2024-02-21T04:44:41;8.30;99.90
8676;DHT22;4375;52.486;13.424;2024-02-21T04:47:07;8.20;99.90
8676;DHT22;4375;52.486;13.424;2024-02-21T04:49:32;8.10;99.90
8676;DHT22;4375;52.486;13.424;2024-02-21T04:51:58;8.10;99.90
8676;DHT22;4375;52.486;13.424;2024-02-21T04:54:24;8.10;99.90
8676;DHT22;4375;52.486;13.424;2024-02-21T04:56:50;8.10;99.90
8676;DHT22;4375;52.486;13.424;2024-02-21T04:59:16;8.10;99.90
8676;DHT22;4375;52.486;13.424;2024-02-21T05:01:42;8.10;99.90
8676;DHT22;4375;52.486;13.424;2024-02-21T05:04:07;8.10;99.90
8676;DHT22;4375;52.486;13.424;2024-02-21T05:06:38;8.10;99.90
8676;DHT22;4375;52.486;13.424;2024-02-21T05:09:04;8.20;99.90
8676;DHT22;4375;52.486;13.424;2024-02-21T05:11:30;8.20;99.90
8676;DHT22;4375;52.486;13.424;2024-02-21T05:13:56;8.10;99.90
8676;DHT22;4375;52.486;13.424;2024-02-21T05:16:21;8.20;99.90
8676;DHT22;4375;52.486;13.424;2024-02-21T05:18:47;8.20;99.90
8676;DHT22;4375;52.486;13.424;2024-02-21T05:21:13;8.20;99.90
8676;DHT22;4375;52.486;13.424;2024-02-21T05:23:38;8.30;99.90
8676;DHT22;4375;52.486;13.424;2024-02-21T05:26:07;8.10;99.90
8676;DHT22;4375;52.486;13.424;2024-02-21T05:28:33;8.20;99.90
8676;DHT22;4375;52.486;13.424;2024-02-21T05:30:58;8.10;99.90
8676;DHT22;4375;52.486;13.424;2024-02-21T05:33:24;8.20;99.90
8676;DHT22;4375;52.486;13.424;2024-02-21T05:35:53;8.10;99.90
8676;DHT22;4375;52.486;13.424;2024-02-21T05:38:18;8.10;99.90
8676;DHT22;4375;52.486;13.424;2024-02-21T05:40:47;8.10;99.90
8676;DHT22;4375;52.486;13.424;2024-02-21T05:43:13;8.20;99.90
8676;DHT22;4375;52.486;13.424;2024-02-21T05:45:39;8.30;99.90
8676;DHT22;4375;52.486;13.424;2024-02-21T05:48:04;8.30;99.90
8676;DHT22;4375;52.486;13.424;2024-02-21T05:50:30;8.20;99.90
8676;DHT22;4375;52.486;13.424;2024-02-21T05:52:57;8.20;99.90
8676;DHT22;4375;52.486;13.424;2024-02-21T05:55:23;8.20;99.90
8676;DHT22;4375;52.486;13.424;2024-02-21T05:57:49;8.10;99.90
8676;DHT22;4375;52.486;13.424;2024-02-21T06:00:15;8.20;99.90
8676;DHT22;4375;52.486;13.424;2024-02-21T06:02:41;8.20;99.90
8676;DHT22;4375;52.486;13.424;2024-02-21T06:05:07;8.20;99.90
8676;DHT22;4375;52.486;13.424;2024-02-21T06:07:34;8.20;99.90
8676;DHT22;4375;52.486;13.424;2024-02-21T06:10:01;8.20;99.90
8676;DHT22;4375;52.486;13.424;2024-02-21T06:12:27;8.20;99.90
8676;DHT22;4375;52.486;13.424;2024-02-21T06:14:52;8.20;99.90
8676;DHT22;4375;52.486;13.424;2024-02-21T06:17:18;8.20;99.90
8676;DHT22;4375;52.486;13.424;2024-02-21T06:19:44;8.20;99.90
8676;DHT22;4375;52.486;13.424;2024-02-21T06:22:10;8.30;99.90
8676;DHT22;4375;52.486;13.424;2024-02-21T06:24:36;8.20;99.90
8676;DHT22;4375;52.486;13.424;2024-02-21T06:27:05;8.20;99.90
8676;DHT22;4375;52.486;13.424;2024-02-21T06:29:34;8.20;99.90
8676;DHT22;4375;52.486;13.424;2024-02-21T06:32:00;8.20;99.90
8676;DHT22;4375;52.486;13.424;2024-02-21T06:34:26;8.20;99.90
8676;DHT22;4375;52.486;13.424;2024-02-21T06:36:52;8.20;99.90
8676;DHT22;4375;52.486;13.424;2024-02-21T06:39:18;8.10;99.90
8676;DHT22;4375;52.486;13.424;2024-02-21T06:41:44;8.20;99.90
8676;DHT22;4375;52.486;13.424;2024-02-21T06:44:09;8.20;99.90
8676;DHT22;4375;52.486;13.424;2024-02-21T06:46:35;8.20;99.90
8676;DHT22;4375;52.486;13.424;2024-02-21T06:49:02;8.20;99.90
8676;DHT22;4375;52.486;13.424;2024-02-21T06:51:29;8.20;99.90
8676;DHT22;4375;52.486;13.424;2024-02-21T06:53:55;8.30;99.90
8676;DHT22;4375;52.486;13.424;2024-02-21T06:56:23;8.40;99.90
8676;DHT22;4375;52.486;13.424;2024-02-21T06:58:52;8.30;99.90
8676;DHT22;4375;52.486;13.424;2024-02-21T07:01:18;8.40;99.90
8676;DHT22;4375;52.486;13.424;2024-02-21T07:03:44;8.40;99.90
8676;DHT22;4375;52.486;13.424;2024-02-21T07:06:09;8.40;99.90
8676;DHT22;4375;52.486;13.424;2024-02-21T07:08:35;8.50;99.90
8676;DHT22;4375;52.486;13.424;2024-02-21T07:11:00;8.50;99.90
8676;DHT22;4375;52.486;13.424;2024-02-21T07:13:26;8.40;99.90
8676;DHT22;4375;52.486;13.424;2024-02-21T07:15:52;8.40;99.90
8676;DHT22;4375;52.486;13.424;2024-02-21T07:18:17;8.30;99.90
8676;DHT22;4375;52.486;13.424;2024-02-21T07:20:43;8.40;99.90
8676;DHT22;4375;52.486;13.424;2024-02-21T07:23:09;8.40;99.90
8676;DHT22;4375;52.486;13.424;2024-02-21T07:25:34;8.40;99.90
8676;DHT22;4375;52.486;13.424;2024-02-21T07:28:00;8.40;99.90
8676;DHT22;4375;52.486;13.424;2024-02-21T07:30:26;8.40;99.90
8676;DHT22;4375;52.486;13.424;2024-02-21T07:32:54;8.50;99.90
8676;DHT22;4375;52.486;13.424;2024-02-21T07:35:19;8.40;99.90
8676;DHT22;4375;52.486;13.424;2024-02-21T07:37:45;8.40;99.90
8676;DHT22;4375;52.486;13.424;2024-02-21T07:40:14;8.40;99.90
8676;DHT22;4375;52.486;13.424;2024-02-21T07:42:40;8.50;99.90
8676;DHT22;4375;52.486;13.424;2024-02-21T07:45:07;8.50;99.90
8676;DHT22;4375;52.486;13.424;2024-02-21T07:47:33;8.50;99.90
8676;DHT22;4375;52.486;13.424;2024-02-21T07:49:58;8.50;99.90
8676;DHT22;4375;52.486;13.424;2024-02-21T07:52:24;8.50;99.90
8676;DHT22;4375;52.486;13.424;2024-02-21T07:54:50;8.50;99.90
8676;DHT22;4375;52.486;13.424;2024-02-21T07:57:16;8.50;99.90
8676;DHT22;4375;52.486;13.424;2024-02-21T07:59:45;8.50;99.90
8676;DHT22;4375;52.486;13.424;2024-02-21T08:02:15;8.50;99.90
8676;DHT22;4375;52.486;13.424;2024-02-21T08:04:41;8.50;99.90
8676;DHT22;4375;52.486;13.424;2024-02-21T08:07:07;8.60;99.90
8676;DHT22;4375;52.486;13.424;2024-02-21T08:09:33;8.60;99.90
8676;DHT22;4375;52.486;13.424;2024-02-21T08:12:00;8.70;99.90
8676;DHT22;4375;52.486;13.424;2024-02-21T08:14:25;8.70;99.90
8676;DHT22;4375;52.486;13.424;2024-02-21T08:16:51;8.70;99.90
8676;DHT22;4375;52.486;13.424;2024-02-21T08:19:21;8.70;99.90
8676;DHT22;4375;52.486;13.424;2024-02-21T08:21:47;8.70;99.90
8676;DHT22;4375;52.486;13.424;2024-02-21T08:24:16;8.80;99.90
8676;DHT22;4375;52.486;13.424;2024-02-21T08:26:43;8.90;99.90
8676;DHT22;4375;52.486;13.424;2024-02-21T08:29:10;8.90;99.90
8676;DHT22;4375;52.486;13.424;2024-02-21T08:31:36;8.90;99.90
8676;DHT22;4375;52.486;13.424;2024-02-21T08:34:02;9.00;99.90
8676;DHT22;4375;52.486;13.424;2024-02-21T08:36:30;9.00;99.90
8676;DHT22;4375;52.486;13.424;2024-02-21T08:38:56;9.00;99.90
8676;DHT22;4375;52.486;13.424;2024-02-21T08:41:22;9.00;99.90
8676;DHT22;4375;52.486;13.424;2024-02-21T08:43:53;9.10;99.90
8676;DHT22;4375;52.486;13.424;2024-02-21T08:46:19;9.20;99.90
8676;DHT22;4375;52.486;13.424;2024-02-21T08:48:46;9.30;99.90
8676;DHT22;4375;52.486;13.424;2024-02-21T08:51:14;9.40;99.90
8676;DHT22;4375;52.486;13.424;2024-02-21T08:53:40;9.30;99.90
8676;DHT22;4375;52.486;13.424;2024-02-21T08:56:06;9.30;99.90
8676;DHT22;4375;52.486;13.424;2024-02-21T08:58:33;9.30;99.90
8676;DHT22;4375;52.486;13.424;2024-02-21T09:00:59;9.50;99.90
8676;DHT22;4375;52.486;13.424;2024-02-21T09:03:24;9.70;99.90
8676;DHT22;4375;52.486;13.424;2024-02-21T09:05:50;9.80;99.90
8676;DHT22;4375;52.486;13.424;2024-02-21T09:08:16;9.80;99.90
8676;DHT22;4375;52.486;13.424;2024-02-21T09:10:41;9.70;99.90
8676;DHT22;4375;52.486;13.424;2024-02-21T09:13:07;9.70;99.90
8676;DHT22;4375;52.486;13.424;2024-02-21T09:15:34;9.60;99.90
8676;DHT22;4375;52.486;13.424;2024-02-21T09:17:59;9.80;99.90
8676;DHT22;4375;52.486;13.424;2024-02-21T09:20:25;9.80;99.90
8676;DHT22;4375;52.486;13.424;2024-02-21T09:22:51;9.80;99.90
8676;DHT22;4375;52.486;13.424;2024-02-21T09:25:17;9.80;99.90
8676;DHT22;4375;52.486;13.424;2024-02-21T09:27:44;9.80;99.90
8676;DHT22;4375;52.486;13.424;2024-02-21T09:30:10;9.90;99.90
8676;DHT22;4375;52.486;13.424;2024-02-21T09:32:37;10.00;99.90
8676;DHT22;4375;52.486;13.424;2024-02-21T09:35:03;10.00;99.90
8676;DHT22;4375;52.486;13.424;2024-02-21T09:37:29;10.10;99.90
8676;DHT22;4375;52.486;13.424;2024-02-21T09:39:54;10.20;99.90
8676;DHT22;4375;52.486;13.424;2024-02-21T09:42:21;10.30;99.90
8676;DHT22;4375;52.486;13.424;2024-02-21T09:44:47;10.30;99.90
8676;DHT22;4375;52.486;13.424;2024-02-21T09:47:24;10.40;99.90
8676;DHT22;4375;52.486;13.424;2024-02-21T09:49:51;10.40;99.90
8676;DHT22;4375;52.486;13.424;2024-02-21T09:52:19;10.40;99.90
8676;DHT22;4375;52.486;13.424;2024-02-21T09:54:46;10.60;99.90
8676;DHT22;4375;52.486;13.424;2024-02-21T09:57:14;10.80;99.90
8676;DHT22;4375;52.486;13.424;2024-02-21T09:59:40;11.00;99.90
8676;DHT22;4375;52.486;13.424;2024-02-21T10:02:07;10.90;99.90
8676;DHT22;4375;52.486;13.424;2024-02-21T10:04:33;10.90;99.90
8676;DHT22;4375;52.486;13.424;2024-02-21T10:06:59;10.90;99.90
8676;DHT22;4375;52.486;13.424;2024-02-21T10:09:26;10.90;99.90
8676;DHT22;4375;52.486;13.424;2024-02-21T10:11:53;11.10;99.90
8676;DHT22;4375;52.486;13.424;2024-02-21T10:14:19;11.20;99.90
8676;DHT22;4375;52.486;13.424;2024-02-21T10:16:47;11.00;99.90
8676;DHT22;4375;52.486;13.424;2024-02-21T10:19:20;10.90;99.90
8676;DHT22;4375;52.486;13.424;2024-02-21T10:22:08;10.90;99.90
8676;DHT22;4375;52.486;13.424;2024-02-21T10:24:35;10.90;99.90
8676;DHT22;4375;52.486;13.424;2024-02-21T10:27:04;10.80;99.90
8676;DHT22;4375;52.486;13.424;2024-02-21T10:29:32;11.00;99.90
8676;DHT22;4375;52.486;13.424;2024-02-21T10:32:08;10.90;99.90
8676;DHT22;4375;52.486;13.424;2024-02-21T10:34:35;10.90;99.90
8676;DHT22;4375;52.486;13.424;2024-02-21T10:37:05;10.90;99.90
8676;DHT22;4375;52.486;13.424;2024-02-21T10:39:39;10.80;99.90
8676;DHT22;4375;52.486;13.424;2024-02-21T10:42:05;10.90;99.90
8676;DHT22;4375;52.486;13.424;2024-02-21T10:44:33;10.90;99.90
8676;DHT22;4375;52.486;13.424;2024-02-21T10:46:59;10.90;99.90
8676;DHT22;4375;52.486;13.424;2024-02-21T10:49:30;10.90;99.90
8676;DHT22;4375;52.486;13.424;2024-02-21T10:52:09;11.00;99.90
8676;DHT22;4375;52.486;13.424;2024-02-21T10:54:44;11.00;99.90
8676;DHT22;4375;52.486;13.424;2024-02-21T10:57:13;11.00;99.90
8676;DHT22;4375;52.486;13.424;2024-02-21T10:59:40;11.20;99.90
8676;DHT22;4375;52.486;13.424;2024-02-21T11:02:06;11.00;99.90
8676;DHT22;4375;52.486;13.424;2024-02-21T11:04:33;10.90;99.90
8676;DHT22;4375;52.486;13.424;2024-02-21T11:07:04;10.80;99.90
8676;DHT22;4375;52.486;13.424;2024-02-21T11:09:31;10.90;99.90
8676;DHT22;4375;52.486;13.424;2024-02-21T11:12:04;11.10;99.90
8676;DHT22;4375;52.486;13.424;2024-02-21T11:14:30;11.00;99.90
8676;DHT22;4375;52.486;13.424;2024-02-21T11:16:58;10.90;99.90
8676;DHT22;4375;52.486;13.424;2024-02-21T11:19:28;11.00;99.90
8676;DHT22;4375;52.486;13.424;2024-02-21T11:21:55;11.00;99.90
8676;DHT22;4375;52.486;13.424;2024-02-21T11:24:31;10.90;99.90
8676;DHT22;4375;52.486;13.424;2024-02-21T11:29:54;11.00;99.90
8676;DHT22;4375;52.486;13.424;2024-02-21T11:32:20;11.00;99.90
8676;DHT22;4375;52.486;13.424;2024-02-21T11:34:57;11.20;99.90
8676;DHT22;4375;52.486;13.424;2024-02-21T11:37:27;11.20;99.90
8676;DHT22;4375;52.486;13.424;2024-02-21T11:39:54;11.40;99.90
8676;DHT22;4375;52.486;13.424;2024-02-21T11:42:20;11.40;99.90
8676;DHT22;4375;52.486;13.424;2024-02-21T11:44:45;11.50;99.90
8676;DHT22;4375;52.486;13.424;2024-02-21T11:47:11;11.50;99.90
8676;DHT22;4375;52.486;13.424;2024-02-21T11:49:38;11.60;99.90
8676;DHT22;4375;52.486;13.424;2024-02-21T11:52:06;11.70;99.90
8676;DHT22;4375;52.486;13.424;2024-02-21T11:54:33;11.80;99.90
8676;DHT22;4375;52.486;13.424;2024-02-21T11:56:59;11.90;99.90
8676;DHT22;4375;52.486;13.424;2024-02-21T11:59:25;11.80;99.90
8676;DHT22;4375;52.486;13.424;2024-02-21T12:01:52;11.90;99.90
8676;DHT22;4375;52.486;13.424;2024-02-21T12:04:19;11.70;99.90
8676;DHT22;4375;52.486;13.424;2024-02-21T12:06:45;11.80;99.90
8676;DHT22;4375;52.486;13.424;2024-02-21T12:09:15;11.80;99.90
8676;DHT22;4375;52.486;13.424;2024-02-21T12:11:44;11.80;99.90
8676;DHT22;4375;52.486;13.424;2024-02-21T12:14:10;11.70;99.90
8676;DHT22;4375;52.486;13.424;2024-02-21T12:16:36;11.80;99.90
8676;DHT22;4375;52.486;13.424;2024-02-21T12:19:05;12.00;99.90
8676;DHT22;4375;52.486;13.424;2024-02-21T12:21:32;12.10;99.90
8676;DHT22;4375;52.486;13.424;2024-02-21T12:23:59;12.00;99.90
8676;DHT22;4375;52.486;13.424;2024-02-21T12:26:25;12.20;99.90
8676;DHT22;4375;52.486;13.424;2024-02-21T12:28:51;12.30;99.90
8676;DHT22;4375;52.486;13.424;2024-02-21T12:31:16;12.40;99.90
8676;DHT22;4375;52.486;13.424;2024-02-21T12:33:45;12.50;99.90
8676;DHT22;4375;52.486;13.424;2024-02-21T12:36:11;12.60;99.90
8676;DHT22;4375;52.486;13.424;2024-02-21T12:38:37;12.80;99.90
8676;DHT22;4375;52.486;13.424;2024-02-21T12:41:03;12.80;99.90
8676;DHT22;4375;52.486;13.424;2024-02-21T12:43:28;12.50;99.90
8676;DHT22;4375;52.486;13.424;2024-02-21T12:45:54;12.40;99.90
8676;DHT22;4375;52.486;13.424;2024-02-21T12:48:20;12.40;99.90
8676;DHT22;4375;52.486;13.424;2024-02-21T12:50:49;12.30;99.90
8676;DHT22;4375;52.486;13.424;2024-02-21T12:53:21;12.40;99.90
8676;DHT22;4375;52.486;13.424;2024-02-21T12:55:48;12.40;99.90
8676;DHT22;4375;52.486;13.424;2024-02-21T12:58:14;12.50;99.90
8676;DHT22;4375;52.486;13.424;2024-02-21T13:00:40;12.60;99.90
8676;DHT22;4375;52.486;13.424;2024-02-21T13:03:06;12.50;99.90
8676;DHT22;4375;52.486;13.424;2024-02-21T13:05:32;12.30;99.90
8676;DHT22;4375;52.486;13.424;2024-02-21T13:07:58;12.40;99.90
8676;DHT22;4375;52.486;13.424;2024-02-21T13:10:25;12.60;99.90
8676;DHT22;4375;52.486;13.424;2024-02-21T13:12:51;12.70;99.90
8676;DHT22;4375;52.486;13.424;2024-02-21T13:15:16;12.80;99.90
8676;DHT22;4375;52.486;13.424;2024-02-21T13:17:44;12.90;99.90
8676;DHT22;4375;52.486;13.424;2024-02-21T13:20:10;12.80;99.90
8676;DHT22;4375;52.486;13.424;2024-02-21T13:22:36;12.90;99.90
8676;DHT22;4375;52.486;13.424;2024-02-21T13:25:02;12.70;99.90
8676;DHT22;4375;52.486;13.424;2024-02-21T13:27:28;12.60;99.90
8676;DHT22;4375;52.486;13.424;2024-02-21T13:29:54;12.70;99.90
8676;DHT22;4375;52.486;13.424;2024-02-21T13:32:19;12.50;99.90
8676;DHT22;4375;52.486;13.424;2024-02-21T13:34:45;12.40;99.90
8676;DHT22;4375;52.486;13.424;2024-02-21T13:37:11;12.40;99.90
8676;DHT22;4375;52.486;13.424;2024-02-21T13:39:37;12.20;99.90
8676;DHT22;4375;52.486;13.424;2024-02-21T13:42:02;12.00;99.90
8676;DHT22;4375;52.486;13.424;2024-02-21T13:44:31;12.00;99.90
8676;DHT22;4375;52.486;13.424;2024-02-21T13:46:57;12.00;99.90
8676;DHT22;4375;52.486;13.424;2024-02-21T13:49:22;12.00;99.90
8676;DHT22;4375;52.486;13.424;2024-02-21T13:51:49;12.00;99.90
8676;DHT22;4375;52.486;13.424;2024-02-21T13:54:14;11.90;99.90
8676;DHT22;4375;52.486;13.424;2024-02-21T13:56:44;11.90;99.90
8676;DHT22;4375;52.486;13.424;2024-02-21T13:59:12;11.90;99.90
8676;DHT22;4375;52.486;13.424;2024-02-21T14:01:39;11.80;99.90
8676;DHT22;4375;52.486;13.424;2024-02-21T14:04:04;11.70;99.90
8676;DHT22;4375;52.486;13.424;2024-02-21T14:06:30;11.70;99.90
8676;DHT22;4375;52.486;13.424;2024-02-21T14:08:56;11.80;99.90
8676;DHT22;4375;52.486;13.424;2024-02-21T14:11:21;11.80;99.90
8676;DHT22;4375;52.486;13.424;2024-02-21T14:13:47;11.90;99.90
8676;DHT22;4375;52.486;13.424;2024-02-21T14:16:12;11.90;99.90
8676;DHT22;4375;52.486;13.424;2024-02-21T14:18:41;12.00;99.90
8676;DHT22;4375;52.486;13.424;2024-02-21T14:21:10;12.00;99.90
8676;DHT22;4375;52.486;13.424;2024-02-21T14:23:39;12.00;99.90
8676;DHT22;4375;52.486;13.424;2024-02-21T14:26:05;12.10;99.90
8676;DHT22;4375;52.486;13.424;2024-02-21T14:28:32;12.20;99.90
8676;DHT22;4375;52.486;13.424;2024-02-21T14:30:59;12.10;99.90
8676;DHT22;4375;52.486;13.424;2024-02-21T14:33:26;12.00;99.90
8676;DHT22;4375;52.486;13.424;2024-02-21T14:35:52;12.00;99.90
8676;DHT22;4375;52.486;13.424;2024-02-21T14:38:21;12.00;99.90
8676;DHT22;4375;52.486;13.424;2024-02-21T14:40:46;12.10;99.90
8676;DHT22;4375;52.486;13.424;2024-02-21T14:43:12;12.10;99.90
8676;DHT22;4375;52.486;13.424;2024-02-21T14:45:37;12.10;99.90
8676;DHT22;4375;52.486;13.424;2024-02-21T14:48:04;12.10;99.90
8676;DHT22;4375;52.486;13.424;2024-02-21T14:50:30;11.90;99.90
8676;DHT22;4375;52.486;13.424;2024-02-21T14:52:56;11.90;99.90
8676;DHT22;4375;52.486;13.424;2024-02-21T14:55:25;11.90;99.90
8676;DHT22;4375;52.486;13.424;2024-02-21T14:57:50;12.00;99.90
8676;DHT22;4375;52.486;13.424;2024-02-21T15:00:16;11.90;99.90
8676;DHT22;4375;52.486;13.424;2024-02-21T15:02:42;11.90;99.90
8676;DHT22;4375;52.486;13.424;2024-02-21T15:05:09;11.80;99.90
8676;DHT22;4375;52.486;13.424;2024-02-21T15:07:35;11.70;99.90
8676;DHT22;4375;52.486;13.424;2024-02-21T15:13:22;11.80;99.90
8676;DHT22;4375;52.486;13.424;2024-02-21T15:15:48;11.80;99.90
8676;DHT22;4375;52.486;13.424;2024-02-21T15:18:15;11.80;99.90
8676;DHT22;4375;52.486;13.424;2024-02-21T15:21:06;11.70;99.90
8676;DHT22;4375;52.486;13.424;2024-02-21T15:23:32;11.70;99.90
8676;DHT22;4375;52.486;13.424;2024-02-21T15:25:58;11.60;99.90
8676;DHT22;4375;52.486;13.424;2024-02-21T15:28:25;11.50;99.90
8676;DHT22;4375;52.486;13.424;2024-02-21T15:30:51;11.50;99.90
8676;DHT22;4375;52.486;13.424;2024-02-21T15:33:17;11.40;99.90
8676;DHT22;4375;52.486;13.424;2024-02-21T15:35:43;11.40;99.90
8676;DHT22;4375;52.486;13.424;2024-02-21T15:38:08;11.30;99.90
8676;DHT22;4375;52.486;13.424;2024-02-21T15:40:34;11.20;99.90
8676;DHT22;4375;52.486;13.424;2024-02-21T15:43:19;11.10;99.90
8676;DHT22;4375;52.486;13.424;2024-02-21T15:45:47;11.10;99.90
8676;DHT22;4375;52.486;13.424;2024-02-21T15:48:13;11.00;99.90
8676;DHT22;4375;52.486;13.424;2024-02-21T15:50:39;11.00;99.90
8676;DHT22;4375;52.486;13.424;2024-02-21T15:53:07;11.00;99.90
8676;DHT22;4375;52.486;13.424;2024-02-21T15:55:32;10.90;99.90
8676;DHT22;4375;52.486;13.424;2024-02-21T15:58:00;10.90;99.90